Terminal Aerodrome Forecast
Issued by NWS

Home | Current Version | Previous Version | Text Only | Print | Product List | Glossary On
Versions: 1 2 3 4 5 6 7 8 9 10 11 12 13 14
647
FTUS44 KLZK 260540
TAFLLQ
TAF
KLLQ 260540Z 2606/2706 VRB04KT P6SM SCT050 BKN100
     FM261000 36012KT P6SM SCT015 OVC050
      TEMPO 2611/2615 BKN015
     FM261500 02012KT P6SM OVC050
     FM262200 03008KT P6SM BKN050
     FM270200 03005KT P6SM SCT050=

USA.gov is the U.S. government's official web portal to all federal, state and local government web resources and services.